Bovee, South Dakota
Current Conditions -  °F | °C
As of 11:53 PM on Friday 31 Oct 2014 (Local Time) from KMHE Reporting Station
Clear Clear  
Wind Chill: 21°   Ceiling: Unl
Heat Index: 31°   Visibility: 10mi
Dew Point: 19°   Wind: 14mph
Humidity: 61%   Direction: 150°SSE
Pressure: 30.36"   Gusts: NA
Location:  43.2601°N, 98.6864°W
Report Text: KMHE 010453Z AUTO 15012KT 10SM CLR M01/M07 A3036 RMK AO2 SLP297 T10061072
Loading
Personal Weather Stations






























Interactive Weather Map
Tropical Storm Tracking
New forecast layout! Learn more

10-Day Weather Forecast

Advertisements
Track Severe Weather on mobile